createdAt,value
2018-04-20T00:00:06.337Z,25.52
2018-04-20T00:02:33.020Z,24.92
2018-04-20T00:04:59.690Z,24.25
2018-04-20T00:07:26.349Z,26.48
2018-04-20T00:09:53.034Z,27.48
2018-04-20T00:12:19.696Z,23.98
2018-04-20T00:14:46.379Z,26.27
2018-04-20T00:17:13.035Z,27.55
2018-04-20T00:19:39.721Z,25.73
2018-04-20T00:22:06.383Z,26.15
2018-04-20T00:24:33.074Z,27.23
2018-04-20T00:26:59.737Z,28.60
2018-04-20T00:29:26.411Z,26.60
2018-04-20T00:31:53.077Z,26.83
2018-04-20T00:34:19.756Z,27.37
2018-04-20T00:36:46.371Z,30.33
2018-04-20T00:39:13.034Z,28.95
2018-04-20T00:41:39.661Z,30.10
2018-04-20T00:44:06.285Z,26.80
2018-04-20T00:46:32.932Z,25.17
2018-04-20T00:48:59.550Z,26.98
2018-04-20T00:51:26.181Z,26.27
2018-04-20T00:53:58.642Z,29.10
2018-04-20T00:56:25.278Z,25.95
2018-04-20T00:58:51.907Z,27.73
2018-04-20T01:01:18.650Z,28.27
2018-04-20T01:03:45.315Z,24.17
2018-04-20T01:06:12.470Z,26.52
2018-04-20T01:08:39.134Z,28.40
2018-04-20T01:11:05.756Z,26.45
2018-04-20T01:13:32.445Z,25.42
2018-04-20T01:15:59.079Z,26.20
2018-04-20T01:18:25.708Z,28.92
2018-04-20T01:20:52.378Z,26.65
2018-04-20T01:23:19.001Z,28.20
2018-04-20T01:25:45.657Z,27.13
2018-04-20T01:28:12.290Z,25.60
2018-04-20T01:30:38.907Z,25.80
2018-04-20T01:33:05.543Z,28.02
2018-04-20T01:35:32.161Z,26.17
2018-04-20T01:37:58.921Z,31.30
2018-04-20T01:40:25.542Z,26.75
2018-04-20T01:42:52.182Z,27.00
2018-04-20T01:45:18.806Z,25.75
2018-04-20T01:47:45.446Z,31.02
2018-04-20T01:50:12.787Z,27.75
2018-04-20T01:52:39.469Z,27.90
2018-04-20T01:55:06.086Z,31.87
2018-04-20T01:57:32.747Z,29.25
2018-04-20T01:59:59.387Z,27.58
2018-04-20T02:02:26.018Z,27.25
2018-04-20T02:04:52.654Z,28.90
2018-04-20T02:07:19.293Z,28.27
2018-04-20T02:09:45.965Z,29.35
2018-04-20T02:12:12.581Z,29.25
2018-04-20T02:14:39.231Z,30.17
2018-04-20T02:17:05.853Z,28.75
2018-04-20T02:19:32.490Z,27.35
2018-04-20T02:21:59.118Z,33.65
2018-04-20T02:24:25.792Z,28.73
2018-04-20T02:26:52.487Z,28.50
2018-04-20T02:29:19.135Z,26.75
2018-04-20T02:31:45.749Z,28.85
2018-04-20T02:34:12.390Z,33.88
2018-04-20T02:36:39.015Z,33.35
2018-04-20T02:39:05.657Z,28.02
2018-04-20T02:41:33.084Z,30.15
2018-04-20T02:43:59.729Z,28.67
2018-04-20T02:46:26.353Z,30.05
2018-04-20T02:48:52.979Z,29.00
2018-04-20T02:51:19.627Z,28.87
2018-04-20T02:53:46.246Z,28.70
2018-04-20T02:56:12.884Z,29.17
2018-04-20T02:58:39.531Z,29.40
2018-04-20T03:01:06.170Z,31.50
2018-04-20T03:03:32.796Z,30.85
2018-04-20T03:05:59.439Z,30.45
2018-04-20T03:08:26.079Z,30.20
2018-04-20T03:10:52.718Z,28.98
2018-04-20T03:13:19.330Z,31.83
2018-04-20T03:15:45.982Z,34.42
2018-04-20T03:18:12.627Z,30.37
2018-04-20T03:20:39.242Z,30.65
2018-04-20T03:23:05.910Z,30.35
2018-04-20T03:25:32.546Z,29.95
2018-04-20T03:27:59.197Z,32.15
2018-04-20T03:30:25.827Z,27.92
2018-04-20T03:32:52.466Z,34.72
2018-04-20T03:35:19.090Z,28.65
2018-04-20T03:37:45.777Z,31.15
2018-04-20T03:40:12.394Z,29.35
2018-04-20T03:42:39.052Z,31.70
2018-04-20T03:45:05.676Z,28.52
2018-04-20T03:47:32.334Z,31.10
2018-04-20T03:49:59.638Z,30.62
2018-04-20T03:52:26.286Z,33.55
2018-04-20T03:54:52.923Z,32.30
2018-04-20T03:57:19.541Z,30.23
2018-04-20T03:59:46.194Z,30.67
2018-04-20T04:02:12.826Z,29.23
2018-04-20T04:04:39.472Z,30.83
2018-04-20T04:07:06.098Z,32.72
2018-04-20T04:09:32.757Z,32.35
2018-04-20T04:11:59.386Z,33.45
2018-04-20T04:14:26.043Z,32.42
2018-04-20T04:16:58.655Z,34.15
2018-04-20T04:19:31.344Z,29.65
2018-04-20T04:22:03.804Z,33.15
2018-04-20T04:24:36.693Z,37.55
2018-04-20T04:27:18.021Z,31.83
2018-04-20T04:29:44.777Z,30.08
2018-04-20T04:32:11.398Z,31.55
2018-04-20T04:34:38.059Z,31.52
2018-04-20T04:37:04.685Z,30.35
2018-04-20T04:39:31.339Z,30.12
2018-04-20T04:41:57.954Z,30.17
2018-04-20T04:44:24.625Z,30.50
2018-04-20T04:46:51.312Z,30.12
2018-04-20T04:49:17.944Z,34.33
2018-04-20T04:51:44.616Z,32.28
2018-04-20T04:54:11.313Z,29.92
2018-04-20T04:56:37.929Z,31.05
2018-04-20T04:59:04.571Z,31.75
2018-04-20T05:01:31.273Z,28.08
2018-04-20T05:03:57.894Z,28.33
2018-04-20T05:06:24.551Z,32.80
2018-04-20T05:08:51.198Z,29.50
2018-04-20T05:11:17.834Z,29.20
2018-04-20T05:13:44.452Z,31.92
2018-04-20T05:16:11.106Z,32.08
2018-04-20T05:18:38.418Z,31.62
2018-04-20T05:21:05.118Z,27.25
2018-04-20T05:23:31.748Z,30.75
2018-04-20T05:25:58.381Z,30.05
2018-04-20T05:28:25.020Z,30.92
2018-04-20T05:30:51.665Z,31.67
2018-04-20T05:33:18.287Z,31.77
2018-04-20T05:35:44.944Z,32.15
2018-04-20T05:38:11.566Z,27.15
2018-04-20T05:40:38.278Z,31.67
2018-04-20T05:43:04.849Z,29.25
2018-04-20T05:45:31.554Z,38.00
2018-04-20T05:47:58.191Z,31.52
2018-04-20T05:50:24.818Z,28.77
2018-04-20T05:52:51.475Z,31.52
2018-04-20T05:55:18.107Z,31.12
2018-04-20T05:57:44.758Z,27.35
2018-04-20T06:00:11.443Z,27.62
2018-04-20T06:02:38.095Z,27.60
2018-04-20T06:05:05.349Z,28.77
2018-04-20T06:07:31.987Z,29.20
2018-04-20T06:09:58.617Z,30.27
2018-04-20T06:12:25.312Z,27.17
2018-04-20T06:14:51.956Z,27.42
2018-04-20T06:17:18.701Z,30.33
2018-04-20T06:19:45.391Z,28.33
2018-04-20T06:22:12.075Z,29.03
2018-04-20T06:24:38.733Z,26.10
2018-04-20T06:27:05.356Z,24.90
2018-04-20T06:29:31.984Z,26.40
2018-04-20T06:31:58.612Z,29.47
2018-04-20T06:34:25.306Z,29.40
2018-04-20T06:36:52.708Z,26.33
2018-04-20T06:39:19.347Z,28.77
2018-04-20T06:41:46.083Z,26.23
2018-04-20T06:44:12.721Z,28.63
2018-04-20T06:46:39.386Z,28.27
2018-04-20T06:49:06.035Z,24.17
2018-04-20T06:51:32.646Z,27.40
2018-04-20T06:53:59.282Z,26.13
2018-04-20T06:56:25.932Z,23.53
2018-04-20T06:58:52.531Z,28.80
2018-04-20T07:01:19.165Z,20.83
2018-04-20T07:03:45.790Z,20.87
2018-04-20T07:06:12.426Z,22.13
2018-04-20T07:08:39.106Z,23.30
2018-04-20T07:11:05.751Z,20.93
2018-04-20T07:13:32.367Z,22.40
2018-04-20T07:15:59.025Z,21.43
2018-04-20T07:18:25.739Z,19.20
2018-04-20T07:20:52.837Z,21.37
2018-04-20T07:23:19.490Z,22.27
2018-04-20T07:25:46.155Z,24.87
2018-04-20T07:28:12.850Z,19.20
2018-04-20T07:30:39.466Z,21.80
2018-04-20T07:33:06.094Z,20.23
2018-04-20T07:35:32.782Z,20.30
2018-04-20T07:37:59.411Z,19.93
2018-04-20T07:40:26.034Z,20.27
2018-04-20T07:42:52.770Z,21.77
2018-04-20T07:45:19.391Z,19.87
2018-04-20T07:47:46.046Z,22.13
2018-04-20T07:50:12.658Z,21.73
2018-04-20T07:52:39.289Z,21.97
2018-04-20T07:55:05.926Z,20.50
2018-04-20T07:57:32.555Z,20.80
2018-04-20T07:59:59.212Z,21.70
2018-04-20T08:02:25.854Z,21.70
2018-04-20T08:04:52.474Z,21.60
2018-04-20T08:07:19.111Z,21.13
2018-04-20T08:09:45.803Z,19.57
2018-04-20T08:12:12.412Z,20.43
2018-04-20T08:14:39.089Z,21.20
2018-04-20T08:17:05.740Z,22.43
2018-04-20T08:19:32.386Z,20.23
2018-04-20T08:21:58.999Z,21.40
2018-04-20T08:24:25.678Z,22.97
2018-04-20T08:26:52.331Z,21.07
2018-04-20T08:29:19.724Z,22.47
2018-04-20T08:31:47.012Z,24.50
2018-04-20T08:34:13.731Z,21.80
2018-04-20T08:36:40.353Z,28.27
2018-04-20T08:39:07.115Z,23.93
2018-04-20T08:41:33.754Z,23.20
2018-04-20T08:44:00.379Z,23.80
2018-04-20T08:46:27.114Z,25.53
2018-04-20T08:48:53.727Z,21.03
2018-04-20T08:51:20.483Z,24.43
2018-04-20T08:53:47.108Z,26.67
2018-04-20T08:56:14.376Z,26.50
2018-04-20T08:58:40.986Z,25.23
2018-04-20T09:01:07.684Z,23.73
2018-04-20T09:03:34.289Z,21.73
2018-04-20T09:06:00.956Z,25.17
2018-04-20T09:08:27.623Z,22.73
2018-04-20T09:10:54.279Z,21.90
2018-04-20T09:13:20.911Z,25.83
2018-04-20T09:15:47.568Z,25.47
2018-04-20T09:18:14.382Z,26.33
2018-04-20T09:20:41.111Z,28.80
2018-04-20T09:23:07.731Z,29.60
2018-04-20T09:25:34.381Z,32.70
2018-04-20T09:28:00.994Z,29.73
2018-04-20T09:30:27.672Z,29.40
2018-04-20T09:32:54.307Z,28.93
2018-04-20T09:35:21.016Z,34.40
2018-04-20T09:37:47.721Z,32.73
2018-04-20T09:40:14.356Z,35.80
2018-04-20T09:42:41.034Z,38.20
2018-04-20T09:45:07.710Z,31.90
2018-04-20T09:47:34.351Z,35.20
2018-04-20T09:50:01.086Z,33.37
2018-04-20T09:52:27.721Z,31.70
2018-04-20T09:54:54.883Z,32.90
2018-04-20T09:57:21.726Z,33.30
2018-04-20T09:59:48.535Z,33.83
2018-04-20T10:02:15.303Z,34.00
2018-04-20T10:04:43.381Z,34.53
2018-04-20T10:07:10.097Z,37.23
2018-04-20T10:09:37.649Z,29.50
2018-04-20T10:12:04.401Z,31.30
2018-04-20T10:14:35.706Z,32.17
2018-04-20T10:17:06.220Z,32.90
2018-04-20T10:19:33.728Z,34.30
2018-04-20T10:22:00.488Z,33.77
2018-04-20T10:24:27.527Z,31.10
2018-04-20T10:26:54.391Z,34.77
2018-04-20T10:29:22.499Z,33.83
2018-04-20T10:31:49.196Z,32.00
2018-04-20T10:34:15.953Z,37.33
2018-04-20T10:36:42.817Z,32.50
2018-04-20T10:39:09.494Z,33.33
2018-04-20T10:41:36.147Z,32.97
2018-04-20T10:44:03.058Z,31.50
2018-04-20T10:46:29.758Z,32.27
2018-04-20T10:48:57.445Z,35.33
2018-04-20T10:51:24.173Z,31.90
2018-04-20T10:53:50.950Z,29.40
2018-04-20T10:56:17.645Z,31.10
2018-04-20T10:58:45.119Z,26.63
2018-04-20T11:01:11.758Z,28.03
2018-04-20T11:03:38.505Z,26.37
2018-04-20T11:06:05.182Z,31.63
2018-04-20T11:08:32.004Z,35.87
2018-04-20T11:10:59.774Z,32.33
2018-04-20T11:13:26.573Z,33.90
2018-04-20T11:15:53.328Z,35.90
2018-04-20T11:18:20.896Z,33.60
2018-04-20T11:20:47.643Z,30.30
2018-04-20T11:23:15.071Z,34.10
2018-04-20T11:25:41.748Z,31.00
2018-04-20T11:28:08.829Z,30.90
2018-04-20T11:30:37.338Z,33.13
2018-04-20T11:33:05.236Z,33.47
2018-04-20T11:35:31.951Z,33.60
2018-04-20T11:38:02.464Z,30.30
2018-04-20T11:40:30.042Z,31.53
2018-04-20T11:42:57.732Z,29.30
2018-04-20T11:45:24.406Z,27.60
2018-04-20T11:47:51.226Z,27.90
2018-04-20T11:50:17.956Z,27.17
2018-04-20T11:52:44.728Z,32.10
2018-04-20T11:55:11.452Z,30.67
2018-04-20T11:57:38.083Z,30.57
2018-04-20T12:00:04.782Z,30.80
2018-04-20T12:02:31.505Z,29.70
2018-04-20T12:04:59.128Z,29.23
2018-04-20T12:07:26.319Z,30.90
2018-04-20T12:09:53.176Z,28.23
2018-04-20T12:12:19.942Z,30.57
2018-04-20T12:14:46.636Z,30.53
2018-04-20T12:17:13.885Z,28.20
2018-04-20T12:19:40.582Z,24.13
2018-04-20T12:22:07.301Z,27.00
2018-04-20T12:24:33.977Z,27.20
2018-04-20T12:27:00.672Z,28.57
2018-04-20T12:29:28.171Z,26.27
2018-04-20T12:31:54.853Z,25.70
2018-04-20T12:34:21.615Z,25.50
2018-04-20T12:36:48.308Z,26.43
2018-04-20T12:39:15.098Z,26.00
2018-04-20T12:41:41.792Z,27.47
2018-04-20T12:44:08.677Z,29.00
2018-04-20T12:46:35.319Z,29.67
2018-04-20T12:49:01.970Z,29.20
2018-04-20T12:51:28.802Z,29.40
2018-04-20T12:53:55.419Z,27.17
2018-04-20T12:56:22.052Z,27.70
2018-04-20T12:58:48.839Z,26.13
2018-04-20T13:01:15.474Z,26.43
2018-04-20T13:03:42.086Z,26.90
2018-04-20T13:06:09.427Z,23.73
2018-04-20T13:08:37.637Z,24.30
2018-04-20T13:11:04.316Z,24.00
2018-04-20T13:13:30.946Z,27.13
2018-04-20T13:15:57.583Z,23.13
2018-04-20T13:18:24.224Z,25.70
2018-04-20T13:20:50.991Z,24.07
2018-04-20T13:23:17.602Z,20.77
2018-04-20T13:25:44.278Z,22.77
2018-04-20T13:28:10.991Z,21.43
2018-04-20T13:30:37.627Z,20.20
2018-04-20T13:33:04.291Z,21.73
2018-04-20T13:35:30.906Z,19.03
2018-04-20T13:37:57.550Z,20.73
2018-04-20T13:40:24.668Z,19.83
2018-04-20T13:42:51.296Z,19.63
2018-04-20T13:45:17.956Z,23.33
2018-04-20T13:47:44.588Z,21.60
2018-04-20T13:50:11.204Z,22.03
2018-04-20T13:52:37.932Z,23.37
2018-04-20T13:55:04.599Z,23.20
2018-04-20T13:57:31.230Z,22.77
2018-04-20T13:59:57.916Z,25.50
2018-04-20T14:02:24.591Z,22.60
2018-04-20T14:04:51.222Z,23.93
2018-04-20T14:07:17.864Z,23.17
2018-04-20T14:09:44.496Z,22.33
2018-04-20T14:12:11.144Z,24.10
2018-04-20T14:14:37.818Z,26.10
2018-04-20T14:17:04.447Z,21.80
2018-04-20T14:19:31.089Z,23.50
2018-04-20T14:21:57.734Z,19.80
2018-04-20T14:24:24.421Z,25.67
2018-04-20T14:26:51.073Z,22.50
2018-04-20T14:29:17.759Z,21.13
2018-04-20T14:31:44.452Z,22.80
2018-04-20T14:34:11.174Z,23.10
2018-04-20T14:36:37.828Z,23.17
2018-04-20T14:39:04.737Z,23.10
2018-04-20T14:41:31.350Z,22.30
2018-04-20T14:43:58.052Z,23.83
2018-04-20T14:46:24.600Z,23.50
2018-04-20T14:48:51.248Z,24.57
2018-04-20T14:51:18.006Z,25.80
2018-04-20T14:53:44.649Z,21.80
2018-04-20T14:56:11.303Z,21.40
2018-04-20T14:58:37.942Z,20.80
2018-04-20T15:01:04.608Z,22.43
2018-04-20T15:03:31.347Z,20.87
2018-04-20T15:05:57.996Z,23.63
2018-04-20T15:08:24.676Z,21.63
2018-04-20T15:10:51.353Z,20.87
2018-04-20T15:13:18.021Z,23.00
2018-04-20T15:15:44.698Z,22.40
2018-04-20T15:18:11.376Z,21.00
2018-04-20T15:20:38.136Z,23.10
2018-04-20T15:23:04.775Z,24.17
2018-04-20T15:25:31.411Z,25.57
2018-04-20T15:27:58.094Z,23.50
2018-04-20T15:30:24.721Z,23.33
2018-04-20T15:32:51.507Z,19.93
2018-04-20T15:35:18.164Z,20.83
2018-04-20T15:37:44.915Z,25.03
2018-04-20T15:40:11.542Z,23.50
2018-04-20T15:42:38.167Z,24.17
2018-04-20T15:45:04.818Z,27.63
2018-04-20T15:47:31.441Z,23.73
2018-04-20T15:49:58.789Z,22.47
2018-04-20T15:52:25.412Z,22.63
2018-04-20T15:54:52.135Z,23.37
2018-04-20T15:57:18.821Z,22.90
2018-04-20T15:59:45.488Z,20.73
2018-04-20T16:02:12.263Z,23.30
2018-04-20T16:04:38.939Z,21.17
2018-04-20T16:07:05.629Z,23.10
2018-04-20T16:09:32.347Z,20.17
2018-04-20T16:11:59.137Z,24.47
2018-04-20T16:14:25.831Z,22.83
2018-04-20T16:16:52.503Z,25.57
2018-04-20T16:19:19.183Z,21.50
2018-04-20T16:21:45.829Z,20.77
2018-04-20T16:24:12.559Z,22.80
2018-04-20T16:26:39.280Z,20.20
2018-04-20T16:29:06.243Z,21.57
2018-04-20T16:31:32.864Z,22.07
2018-04-20T16:33:59.514Z,23.77
2018-04-20T16:36:26.150Z,22.17
2018-04-20T16:38:52.789Z,22.50
2018-04-20T16:41:19.416Z,21.60
2018-04-20T16:43:46.136Z,24.70
2018-04-20T16:46:12.780Z,22.53
2018-04-20T16:48:39.472Z,22.20
2018-04-20T16:51:06.098Z,22.83
2018-04-20T16:53:32.721Z,22.70
2018-04-20T16:55:59.415Z,21.10
2018-04-20T16:58:26.108Z,23.20
2018-04-20T17:00:53.939Z,22.83
2018-04-20T17:03:21.514Z,23.03
2018-04-20T17:05:49.047Z,22.70
2018-04-20T17:08:16.322Z,25.90
2018-04-20T17:10:43.121Z,23.40
2018-04-20T17:13:09.849Z,24.67
2018-04-20T17:15:37.274Z,23.07
2018-04-20T17:18:04.028Z,22.90
2018-04-20T17:20:31.063Z,21.67
2018-04-20T17:22:58.345Z,22.57
2018-04-20T17:25:24.969Z,21.13
2018-04-20T17:27:51.710Z,22.77
2018-04-20T17:30:18.537Z,25.30
2018-04-20T17:32:45.260Z,23.33
2018-04-20T17:35:12.150Z,25.80
2018-04-20T17:37:38.841Z,30.00
2018-04-20T17:40:06.024Z,25.60
2018-04-20T17:42:32.830Z,23.47
2018-04-20T17:44:59.678Z,26.30
2018-04-20T17:47:26.417Z,23.90
2018-04-20T17:49:53.069Z,21.00
2018-04-20T17:52:19.912Z,22.57
2018-04-20T17:54:46.629Z,23.70
2018-04-20T17:57:14.006Z,23.63
2018-04-20T17:59:40.733Z,25.10
2018-04-20T18:02:07.950Z,24.17
2018-04-20T18:04:34.661Z,26.73
2018-04-20T18:07:02.009Z,21.80
2018-04-20T18:09:29.667Z,22.30
2018-04-20T18:11:56.552Z,24.07
2018-04-20T18:14:23.294Z,23.93
2018-04-20T18:16:50.709Z,25.10
2018-04-20T18:19:17.521Z,28.40
2018-04-20T18:21:44.927Z,22.10
2018-04-20T18:24:12.119Z,23.07
2018-04-20T18:26:38.864Z,24.67
2018-04-20T18:29:05.809Z,23.10
2018-04-20T18:31:32.664Z,26.37
2018-04-20T18:33:59.410Z,22.80
2018-04-20T18:36:27.168Z,29.50
2018-04-20T18:38:54.127Z,25.57
2018-04-20T18:41:21.340Z,24.23
2018-04-20T18:43:48.063Z,24.93
2018-04-20T18:46:14.850Z,26.40
2018-04-20T18:48:42.152Z,26.43
2018-04-20T18:51:09.691Z,25.00
2018-04-20T18:53:38.008Z,24.13
2018-04-20T18:56:04.655Z,24.63
2018-04-20T18:58:35.529Z,26.30
2018-04-20T19:01:02.408Z,25.03
2018-04-20T19:03:29.693Z,24.17
2018-04-20T19:05:56.492Z,24.53
2018-04-20T19:08:23.186Z,22.60
2018-04-20T19:10:49.947Z,24.87
2018-04-20T19:13:16.678Z,26.00
2018-04-20T19:15:44.264Z,21.60
2018-04-20T19:18:10.928Z,24.90
2018-04-20T19:20:37.673Z,26.07
2018-04-20T19:23:04.362Z,24.17
2018-04-20T19:25:31.105Z,24.67
2018-04-20T19:27:57.803Z,25.33
2018-04-20T19:30:24.522Z,25.53
2018-04-20T19:32:51.307Z,24.17
2018-04-20T19:35:18.061Z,27.77
2018-04-20T19:37:45.610Z,24.90
2018-04-20T19:40:12.782Z,27.17
2018-04-20T19:42:40.457Z,23.90
2018-04-20T19:45:07.189Z,25.20
2018-04-20T19:47:33.945Z,25.60
2018-04-20T19:50:01.338Z,27.73
2018-04-20T19:52:35.292Z,24.67
2018-04-20T19:55:02.035Z,24.00
2018-04-20T19:57:28.845Z,30.17
2018-04-20T19:59:56.016Z,26.50
2018-04-20T20:02:29.234Z,26.70
2018-04-20T20:04:56.115Z,26.40
2018-04-20T20:07:24.181Z,38.17
2018-04-20T20:09:51.046Z,30.57
2018-04-20T20:12:17.757Z,31.47
2018-04-20T20:14:44.564Z,34.53
2018-04-20T20:17:12.016Z,31.47
2018-04-20T20:19:43.587Z,30.80
2018-04-20T20:22:10.652Z,31.07
2018-04-20T20:24:37.429Z,29.90
2018-04-20T20:27:04.162Z,28.47
2018-04-20T20:29:31.935Z,28.23
2018-04-20T20:31:58.596Z,29.03
2018-04-20T20:34:25.311Z,28.50
2018-04-20T20:36:51.998Z,27.83
2018-04-20T20:39:18.970Z,30.47
2018-04-20T20:41:46.440Z,30.57
2018-04-20T20:44:13.104Z,31.27
2018-04-20T20:46:40.386Z,37.00
2018-04-20T20:49:07.140Z,35.37
2018-04-20T20:51:34.744Z,28.00
2018-04-20T20:54:01.587Z,29.57
2018-04-20T20:56:29.121Z,28.07
2018-04-20T20:58:56.645Z,32.50
2018-04-20T21:01:23.362Z,26.80
2018-04-20T21:03:50.032Z,29.03
2018-04-20T21:06:16.732Z,31.63
2018-04-20T21:08:44.137Z,28.13
2018-04-20T21:11:10.874Z,27.70
2018-04-20T21:13:37.667Z,26.73
2018-04-20T21:16:04.302Z,28.50
2018-04-20T21:18:31.064Z,26.00
2018-04-20T21:20:59.819Z,33.53
2018-04-20T21:23:26.717Z,27.57
2018-04-20T21:25:53.343Z,27.30
2018-04-20T21:28:20.083Z,31.90
2018-04-20T21:30:50.752Z,31.43
2018-04-20T21:33:21.645Z,29.63
2018-04-20T21:35:48.432Z,30.33
2018-04-20T21:38:15.087Z,33.30
2018-04-20T21:40:41.727Z,33.63
2018-04-20T21:43:08.877Z,33.50
2018-04-20T21:45:36.366Z,31.67
2018-04-20T21:48:03.076Z,30.63
2018-04-20T21:50:31.600Z,31.27
2018-04-20T21:52:58.277Z,34.33
2018-04-20T21:55:24.959Z,31.13
2018-04-20T21:57:51.598Z,33.90
2018-04-20T22:00:18.855Z,39.33
2018-04-20T22:02:49.411Z,34.10
2018-04-20T22:05:16.068Z,34.20
2018-04-20T22:07:42.678Z,31.50
2018-04-20T22:10:09.358Z,31.47
2018-04-20T22:12:36.006Z,35.20
2018-04-20T22:15:02.711Z,34.47
2018-04-20T22:17:33.285Z,36.42
2018-04-20T22:19:59.977Z,32.97
2018-04-20T22:22:26.602Z,38.30
2018-04-20T22:24:53.299Z,34.60
2018-04-20T22:27:19.956Z,31.08
2018-04-20T22:29:47.339Z,34.90
2018-04-20T22:32:14.008Z,35.60
2018-04-20T22:34:40.761Z,33.25
2018-04-20T22:37:07.471Z,35.37
2018-04-20T22:39:34.123Z,34.97
2018-04-20T22:42:04.802Z,33.10
2018-04-20T22:44:32.175Z,39.22
2018-04-20T22:46:58.959Z,34.30
2018-04-20T22:49:26.494Z,38.80
2018-04-20T22:51:53.142Z,33.58
2018-04-20T22:54:20.590Z,37.00
2018-04-20T22:56:47.209Z,38.35
2018-04-20T22:59:13.855Z,41.50
2018-04-20T23:01:41.439Z,35.03
2018-04-20T23:04:08.129Z,34.25
2018-04-20T23:06:34.769Z,39.47
2018-04-20T23:09:02.242Z,38.13
2018-04-20T23:11:29.338Z,40.03
2018-04-20T23:13:55.986Z,38.65
2018-04-20T23:16:22.794Z,36.78
2018-04-20T23:18:49.468Z,34.17
2018-04-20T23:21:16.173Z,38.22
2018-04-20T23:23:42.862Z,41.78
2018-04-20T23:26:10.244Z,35.17
2018-04-20T23:28:42.055Z,35.45
2018-04-20T23:31:12.458Z,35.83
2018-04-20T23:33:39.205Z,37.25
2018-04-20T23:36:10.392Z,36.42
2018-04-20T23:38:37.032Z,36.28
2018-04-20T23:41:05.043Z,39.40
2018-04-20T23:43:35.517Z,39.38
2018-04-20T23:46:03.599Z,36.67
2018-04-20T23:48:30.313Z,35.13
2018-04-20T23:50:57.058Z,40.47
2018-04-20T23:53:23.716Z,39.20
2018-04-20T23:55:50.547Z,39.00
2018-04-20T23:58:17.213Z,36.05
